Holyrood, Canada
Current Conditions -  °F | °C
As of 9:00 AM on Wednesday 26 Nov 2014 (Local Time) from CYYT Reporting Station
Broken Clouds Broken Clouds  
Wind Chill: 32°   Ceiling: 18000
Heat Index: 43°   Visibility: 15mi
Dew Point: 36°   Wind: 29mph
Humidity: 76%   Direction: 270°W
Pressure: 29.82"   Gusts: 37mph
Location:  47.38°N, 53.13°W
Report Text: CYYT 261200Z 27025G32KT 15SM FEW030 BKN180 06/02 A2982 RMK SC2AC5 SLP101
Loading
Personal Weather Stations






























Interactive Weather Map New forecast layout! Learn more

10-Day Weather Forecast

Advertisements
Track Severe Weather on mobile